Time;durP1;ratioP1;P1;durP2;ratioP2;P2;SDS_P1;SDS_P2;PMS_P1;PMS_P2;Temp;Humidity;BMP_temperature;BMP_pressure;BME280_temperature;BME280_humidity;BME280_pressure;Samples;Min_cycle;Max_cycle;Signal;HPM_P1;HPM_P2
2023/09/17 00:00:11;;;;;;;3.50;1.65;;;;;;;19.63;66.60;99912.44;4470323;32;33986;-82
2023/09/17 00:02:40;;;;;;;1.87;1.45;;;;;;;19.36;67.47;99912.81;4468345;32;35112;-81
2023/09/17 00:05:09;;;;;;;3.22;1.75;;;;;;;19.45;67.31;99914.19;4470598;32;33647;-80
2023/09/17 00:07:38;;;;;;;2.83;1.60;;;;;;;19.29;67.72;99914.00;4465360;32;33644;-80
2023/09/17 00:10:07;;;;;;;2.10;1.25;;;;;;;19.32;67.07;99911.25;4469874;32;33804;-81
2023/09/17 00:12:36;;;;;;;2.75;1.50;;;;;;;19.13;67.81;99907.72;4468924;32;34707;-80
2023/09/17 00:15:06;;;;;;;3.53;2.50;;;;;;;19.27;67.30;99907.13;4464525;32;34108;-81
2023/09/17 00:17:37;;;;;;;5.07;2.00;;;;;;;19.24;67.55;99899.38;4471118;32;33409;-80
2023/09/17 00:20:10;;;;;;;;;;;;;;;19.21;67.33;99889.84;4473889;32;34058;-81
2023/09/17 00:22:41;;;;;;;2.87;1.52;;;;;;;19.28;67.21;99895.66;4459795;32;33982;-80
2023/09/17 00:25:10;;;;;;;3.42;2.03;;;;;;;19.25;67.30;99890.53;4474836;32;33385;-81
2023/09/17 00:27:40;;;;;;;5.55;2.22;;;;;;;19.20;67.67;99888.13;4464791;32;33468;-81
2023/09/17 00:30:09;;;;;;;2.90;1.80;;;;;;;19.14;68.07;99891.91;4464820;32;33577;-80
2023/09/17 00:32:39;;;;;;;1.98;1.33;;;;;;;19.26;67.82;99887.00;4459248;32;33800;-80
2023/09/17 00:35:09;;;;;;;2.95;1.23;;;;;;;19.25;67.48;99882.66;4459587;32;32421;-80
2023/09/17 00:37:38;;;;;;;2.22;1.20;;;;;;;19.24;67.41;99894.97;4457719;32;34311;-80
2023/09/17 00:40:09;;;;;;;2.03;1.40;;;;;;;19.26;67.25;99887.00;4470553;32;32793;-81
2023/09/17 00:42:40;;;;;;;4.53;2.08;;;;;;;19.07;68.01;99881.72;4477394;32;34165;-80
2023/09/17 00:45:10;;;;;;;2.95;1.65;;;;;;;19.00;68.16;99883.78;4473613;32;32754;-80
2023/09/17 00:47:41;;;;;;;2.42;1.65;;;;;;;19.12;67.55;99885.00;4475241;32;33836;-80
2023/09/17 00:50:10;;;;;;;2.22;1.58;;;;;;;19.14;67.43;99889.28;4475528;32;33223;-80
2023/09/17 00:52:39;;;;;;;3.60;1.90;;;;;;;19.19;66.98;99889.06;4480625;32;33645;-80
2023/09/17 00:55:09;;;;;;;2.28;1.37;;;;;;;19.06;67.57;99880.00;4474671;32;32917;-81
2023/09/17 00:57:38;;;;;;;4.30;1.77;;;;;;;19.17;67.09;99881.22;4475664;32;34310;-80
2023/09/17 01:00:09;;;;;;;3.75;2.12;;;;;;;19.14;67.25;99884.00;4476678;32;34470;-80
2023/09/17 01:02:39;;;;;;;3.78;2.00;;;;;;;19.11;67.52;99878.91;4480769;32;33958;-81
2023/09/17 01:05:09;;;;;;;3.40;1.70;;;;;;;18.94;68.07;99878.78;4483579;32;33837;-80
2023/09/17 01:07:39;;;;;;;4.50;1.73;;;;;;;19.01;67.81;99871.47;4477871;32;33769;-81
2023/09/17 01:10:09;;;;;;;3.00;1.90;;;;;;;19.14;67.13;99877.91;4477238;32;33912;-79
2023/09/17 01:12:39;;;;;;;2.05;1.30;;;;;;;19.02;67.24;99878.47;4477507;32;34215;-80
2023/09/17 01:15:11;;;;;;;4.25;2.08;;;;;;;18.96;67.55;99879.56;4483014;32;33701;-80
2023/09/17 01:17:40;;;;;;;2.67;1.40;;;;;;;18.69;68.73;99871.94;4477654;32;33647;-80
2023/09/17 01:20:25;;;;;;;4.65;2.35;;;;;;;18.97;67.92;99881.28;4477313;31;32487;-80
2023/09/17 01:22:59;;;;;;;2.10;1.50;;;;;;;18.96;67.91;99882.19;4477794;32;33806;-81
2023/09/17 01:25:40;;;;;;;2.87;1.75;;;;;;;18.81;68.08;99881.09;4464906;32;34176;-80
2023/09/17 01:28:13;;;;;;;2.65;1.52;;;;;;;18.72;68.37;99873.59;4466243;32;34524;-81
2023/09/17 01:30:42;;;;;;;2.50;1.58;;;;;;;18.82;67.75;99874.06;4462469;32;33604;-81
2023/09/17 01:33:11;;;;;;;3.17;1.62;;;;;;;18.81;67.93;99875.84;4464612;31;33715;-80
2023/09/17 01:35:47;;;;;;;3.67;1.52;;;;;;;18.90;67.66;99880.72;4466348;32;33786;-80
2023/09/17 01:38:19;;;;;;;3.40;1.80;;;;;;;18.82;67.62;99877.53;4464618;32;34645;-80
2023/09/17 01:40:49;;;;;;;3.92;2.10;;;;;;;18.66;68.02;99872.09;4473552;32;34363;-81
2023/09/17 01:43:20;;;;;;;2.37;1.40;;;;;;;18.81;67.26;99870.59;4466024;32;34125;-80
2023/09/17 01:45:50;;;;;;;4.50;2.05;;;;;;;18.85;67.15;99868.69;4462072;32;33475;-79
2023/09/17 01:48:20;;;;;;;2.83;1.37;;;;;;;18.70;67.94;99865.78;4468873;32;33930;-80
2023/09/17 01:50:50;;;;;;;2.08;1.45;;;;;;;18.81;67.26;99859.22;4474901;32;34037;-81
2023/09/17 01:53:19;;;;;;;1.92;1.30;;;;;;;18.59;67.99;99862.75;4468117;32;34103;-80
2023/09/17 01:55:52;;;;;;;1.90;1.33;;;;;;;18.66;67.79;99872.09;4462231;32;33472;-80
2023/09/17 01:58:23;;;;;;;3.58;1.65;;;;;;;18.58;67.93;99868.06;4466020;32;33547;-80
2023/09/17 02:00:52;;;;;;;2.62;1.55;;;;;;;18.61;67.65;99874.06;4461567;32;34492;-79
2023/09/17 02:03:21;;;;;;;3.20;1.70;;;;;;;18.49;68.23;99879.84;4471257;32;33972;-81
2023/09/17 02:05:50;;;;;;;4.30;2.03;;;;;;;18.73;67.41;99873.53;4460130;32;33509;-80
2023/09/17 02:08:19;;;;;;;2.55;1.60;;;;;;;18.70;67.73;99867.53;4462064;32;33507;-81
2023/09/17 02:10:48;;;;;;;2.20;1.70;;;;;;;18.55;68.07;99869.06;4466303;32;33704;-81
2023/09/17 02:13:17;;;;;;;2.97;1.87;;;;;;;18.66;67.56;99866.84;4468091;32;33357;-80
2023/09/17 02:15:51;;;;;;;2.70;1.75;;;;;;;18.66;67.68;99863.37;4469346;32;33789;-81
2023/09/17 02:18:21;;;;;;;3.90;1.90;;;;;;;18.49;68.28;99869.34;4464296;32;33270;-81
2023/09/17 02:20:49;;;;;;;3.05;1.75;;;;;;;18.58;68.04;99862.81;4464375;32;34454;-81
2023/09/17 02:23:18;;;;;;;3.22;1.67;;;;;;;18.61;68.05;99855.69;4462935;32;33880;-80
2023/09/17 02:25:47;;;;;;;2.83;1.80;;;;;;;18.66;67.94;99861.56;4466395;32;33152;-80
2023/09/17 02:28:16;;;;;;;5.07;1.98;;;;;;;18.50;68.46;99856.13;4463644;32;33605;-81
2023/09/17 02:30:46;;;;;;;4.65;1.95;;;;;;;18.45;68.42;99855.47;4470837;32;33735;-80
2023/09/17 02:33:16;;;;;;;2.75;1.60;;;;;;;18.53;68.11;99856.00;4465849;32;33531;-80
2023/09/17 02:35:45;;;;;;;2.73;1.57;;;;;;;18.60;67.52;99859.22;4470957;31;33421;-81
2023/09/17 02:38:13;;;;;;;5.12;2.15;;;;;;;18.65;66.90;99853.75;4463212;32;33780;-80
2023/09/17 02:40:43;;;;;;;4.35;2.05;;;;;;;18.46;68.19;99844.06;4466062;32;33669;-80
2023/09/17 02:43:12;;;;;;;5.45;2.40;;;;;;;18.39;68.53;99852.25;4460997;32;33881;-81
2023/09/17 02:45:41;;;;;;;1.33;1.10;;;;;;;18.33;68.47;99858.63;4466465;32;34217;-81
2023/09/17 02:48:11;;;;;;;3.90;1.85;;;;;;;18.25;68.76;99858.97;4467399;32;33492;-80
2023/09/17 02:50:42;;;;;;;3.22;1.75;;;;;;;18.36;68.43;99853.22;4466061;32;34570;-80
2023/09/17 02:53:11;;;;;;;2.37;1.43;;;;;;;18.22;68.71;99859.09;4471125;32;33319;-81
2023/09/17 02:55:42;;;;;;;3.00;1.85;;;;;;;18.26;68.43;99858.03;4464307;32;33268;-80
2023/09/17 02:58:12;;;;;;;2.97;1.80;;;;;;;18.44;67.94;99855.56;4474108;32;33913;-78
2023/09/17 03:00:43;;;;;;;3.00;1.65;;;;;;;18.32;67.79;99852.53;4468961;32;34365;-81
2023/09/17 03:03:15;;;;;;;3.40;1.90;;;;;;;17.99;69.05;99849.53;4468463;32;34049;-81
2023/09/17 03:05:47;;;;;;;2.67;1.55;;;;;;;18.29;67.66;99850.03;4460789;32;32781;-81
2023/09/17 03:08:16;;;;;;;3.33;2.03;;;;;;;18.21;67.73;99857.38;4461038;32;35332;-81
2023/09/17 03:10:45;;;;;;;2.40;1.67;;;;;;;18.32;67.48;99849.91;4470819;32;33923;-80
2023/09/17 03:13:16;;;;;;;2.35;1.65;;;;;;;18.22;67.73;99845.97;4460912;32;34374;-81
2023/09/17 03:15:45;;;;;;;;;;;;;;;18.22;68.16;99845.97;4461522;32;33622;-80
2023/09/17 03:18:15;;;;;;;2.95;1.77;;;;;;;18.16;68.07;99851.47;4471461;32;33940;-80
2023/09/17 03:20:44;;;;;;;2.62;1.58;;;;;;;18.14;67.83;99845.41;4470932;31;33959;-80
2023/09/17 03:23:15;;;;;;;3.12;1.65;;;;;;;18.24;67.64;99838.00;4460019;32;34192;-80
2023/09/17 03:25:43;;;;;;;3.17;1.40;;;;;;;18.04;68.61;99836.22;4462372;32;33317;-80
2023/09/17 03:28:13;;;;;;;2.87;1.80;;;;;;;18.17;68.09;99840.06;4462472;32;33896;-81
2023/09/17 03:30:43;;;;;;;3.85;1.83;;;;;;;18.18;68.01;99835.66;4463364;32;34001;-80
2023/09/17 03:33:13;;;;;;;4.00;1.85;;;;;;;18.09;68.49;99829.84;4468682;32;34016;-79
2023/09/17 03:35:42;;;;;;;;;;;;;;;18.09;68.89;99836.88;4474866;32;33397;-79
2023/09/17 03:38:11;;;;;;;3.37;1.35;;;;;;;18.13;68.47;99843.72;4460205;32;34698;-80
2023/09/17 03:40:41;;;;;;;3.00;1.60;;;;;;;17.90;69.15;99836.78;4462266;32;33716;-80
2023/09/17 03:43:11;;;;;;;2.47;1.35;;;;;;;18.08;68.61;99840.44;4478618;32;34872;-80
2023/09/17 03:45:41;;;;;;;3.58;1.75;;;;;;;18.13;68.50;99836.69;4469151;32;34104;-80
2023/09/17 03:48:09;;;;;;;2.80;1.75;;;;;;;17.95;69.14;99839.22;4471510;32;33813;-79
2023/09/17 03:50:42;;;;;;;2.05;1.55;;;;;;;17.68;69.95;99844.62;4469415;32;34482;-80
2023/09/17 03:53:11;;;;;;;3.45;1.87;;;;;;;17.97;69.10;99834.75;4459282;32;33900;-80
2023/09/17 03:55:42;;;;;;;5.10;1.73;;;;;;;18.18;68.26;99847.00;4467310;32;33415;-81
2023/09/17 03:58:11;;;;;;;7.60;1.77;;;;;;;18.01;69.13;99837.19;4460602;32;32904;-79
2023/09/17 04:00:42;;;;;;;3.10;1.55;;;;;;;17.99;69.12;99841.66;4462383;32;34297;-79
2023/09/17 04:03:14;;;;;;;2.20;1.60;;;;;;;17.96;69.17;99846.19;4469200;32;34212;-80
2023/09/17 04:05:43;;;;;;;6.47;1.85;;;;;;;18.15;68.09;99855.00;4475207;32;33631;-80
2023/09/17 04:08:12;;;;;;;3.87;1.80;;;;;;;18.05;68.70;99841.41;4460911;32;34605;-81
2023/09/17 04:10:43;;;;;;;7.37;2.62;;;;;;;18.05;68.91;99846.66;4462144;32;33555;-79
2023/09/17 04:13:12;;;;;;;3.33;1.90;;;;;;;18.21;68.25;99851.25;4460105;32;33413;-79
2023/09/17 04:15:41;;;;;;;2.95;1.62;;;;;;;18.17;68.61;99849.69;4459024;32;33480;-80
2023/09/17 04:18:10;;;;;;;4.32;1.85;;;;;;;18.21;68.31;99854.75;4471717;32;34803;-80
2023/09/17 04:20:39;;;;;;;2.10;1.37;;;;;;;18.18;68.31;99860.12;4474446;32;35339;-80
2023/09/17 04:23:09;;;;;;;3.65;2.03;;;;;;;18.22;68.63;99858.22;4462857;32;33949;-80
2023/09/17 04:25:38;;;;;;;2.83;1.70;;;;;;;18.29;67.97;99864.91;4458325;32;32984;-80
2023/09/17 04:28:08;;;;;;;3.22;1.80;;;;;;;18.19;68.29;99867.06;4463255;32;33488;-80
2023/09/17 04:30:37;;;;;;;4.05;2.08;;;;;;;18.26;68.08;99863.28;4459065;32;33767;-80
2023/09/17 04:33:06;;;;;;;3.12;1.60;;;;;;;18.28;68.03;99866.69;4460267;32;34650;-81
2023/09/17 04:35:35;;;;;;;1.95;1.52;;;;;;;18.27;68.33;99865.00;4461375;32;33502;-79
2023/09/17 04:38:07;;;;;;;2.33;1.40;;;;;;;18.11;68.89;99869.19;4463642;32;33716;-80
2023/09/17 04:40:36;;;;;;;3.40;1.92;;;;;;;18.19;68.54;99872.31;4467083;32;34016;-80
2023/09/17 04:43:05;;;;;;;3.28;1.75;;;;;;;18.12;68.82;99876.12;4473689;32;33971;-81
2023/09/17 04:45:38;;;;;;;4.53;2.25;;;;;;;18.28;67.98;99881.59;4463019;32;33290;-79
2023/09/17 04:48:09;;;;;;;3.53;2.25;;;;;;;18.22;68.08;99877.47;4461884;32;34376;-79
2023/09/17 04:50:42;;;;;;;3.58;1.75;;;;;;;18.36;67.91;99879.50;4467586;32;33280;-79
2023/09/17 04:53:15;;;;;;;2.92;1.83;;;;;;;18.34;67.96;99882.22;4464478;32;34095;-80
2023/09/17 04:55:45;;;;;;;3.00;1.85;;;;;;;18.30;68.03;99879.78;4466661;32;33525;-81
2023/09/17 04:58:16;;;;;;;2.70;1.70;;;;;;;18.29;68.42;99891.19;4462689;32;34455;-80
2023/09/17 05:00:47;;;;;;;3.25;1.50;;;;;;;18.23;68.78;99884.41;4465629;32;34745;-79
2023/09/17 05:03:16;;;;;;;6.12;1.73;;;;;;;18.29;68.98;99889.44;4472337;32;34430;-80
2023/09/17 05:05:46;;;;;;;3.25;1.92;;;;;;;18.35;68.76;99890.94;4465737;32;33593;-79
2023/09/17 05:08:16;;;;;;;2.95;1.75;;;;;;;18.32;69.21;99889.28;4473568;32;33551;-81
2023/09/17 05:10:46;;;;;;;3.78;1.87;;;;;;;18.35;69.24;99888.31;4474671;32;34543;-80
2023/09/17 05:13:15;;;;;;;4.43;2.12;;;;;;;18.31;69.52;99881.47;4469599;32;34399;-79
2023/09/17 05:15:44;;;;;;;3.97;1.87;;;;;;;18.51;68.68;99886.75;4462909;32;33259;-79
2023/09/17 05:18:14;;;;;;;4.22;2.05;;;;;;;18.44;69.14;99889.72;4461878;32;33733;-79
2023/09/17 05:20:45;;;;;;;3.28;2.05;;;;;;;18.42;69.37;99900.25;4469588;32;34286;-80
2023/09/17 05:23:14;;;;;;;3.10;1.60;;;;;;;18.50;69.60;99898.16;4464620;32;32517;-79
2023/09/17 05:25:45;;;;;;;2.05;1.50;;;;;;;18.73;68.91;99893.72;4468715;32;33464;-79
2023/09/17 05:28:14;;;;;;;2.97;1.70;;;;;;;18.61;70.06;99902.13;4461092;32;34238;-80
2023/09/17 05:30:44;;;;;;;4.10;2.10;;;;;;;18.78;70.03;99901.44;4460358;32;34513;-80
2023/09/17 05:33:15;;;;;;;3.60;2.20;;;;;;;18.96;69.49;99903.22;4470125;32;34870;-80
2023/09/17 05:35:43;;;;;;;2.53;1.50;;;;;;;18.81;70.13;99914.44;4473369;32;33568;-79
2023/09/17 05:38:12;;;;;;;3.35;1.95;;;;;;;19.01;69.97;99913.53;4461702;32;34504;-79
2023/09/17 05:40:41;;;;;;;3.58;1.80;;;;;;;19.05;69.92;99915.97;4468801;32;34018;-79
2023/09/17 05:43:09;;;;;;;3.83;2.25;;;;;;;19.02;70.41;99921.38;4461543;32;34672;-79
2023/09/17 05:45:39;;;;;;;6.45;1.67;;;;;;;19.07;70.76;99918.53;4461536;32;34273;-81
2023/09/17 05:48:08;;;;;;;4.12;2.05;;;;;;;19.13;71.16;99926.13;4466468;32;34471;-79
2023/09/17 05:50:38;;;;;;;3.08;1.80;;;;;;;19.15;71.77;99924.31;4461370;32;34710;-80
2023/09/17 05:53:08;;;;;;;3.90;2.10;;;;;;;19.09;73.01;99921.97;4464080;32;34507;-79
2023/09/17 05:55:36;;;;;;;4.70;2.53;;;;;;;19.51;72.18;99929.66;4465168;32;32865;-79
2023/09/17 05:58:05;;;;;;;3.37;1.80;;;;;;;19.48;72.37;99932.44;4475797;32;33507;-80
2023/09/17 06:00:34;;;;;;;3.20;2.00;;;;;;;19.13;74.07;99921.72;4469346;32;33725;-79
2023/09/17 06:03:04;;;;;;;3.72;2.25;;;;;;;19.34;73.08;99922.53;4469070;32;34544;-79
2023/09/17 06:05:32;;;;;;;4.00;2.12;;;;;;;19.71;71.45;99922.66;4464598;32;33962;-80
2023/09/17 06:08:03;;;;;;;3.42;1.92;;;;;;;19.62;71.17;99918.66;4472735;32;34118;-80
2023/09/17 06:10:33;;;;;;;;;;;;;;;19.92;69.90;99918.16;4470665;32;33650;-79
2023/09/17 06:13:01;;;;;;;4.68;1.80;;;;;;;20.08;69.12;99931.41;4465458;32;34156;-79
2023/09/17 06:15:30;;;;;;;5.55;2.08;;;;;;;20.09;68.95;99933.97;4466726;32;33201;-80
2023/09/17 06:17:59;;;;;;;4.53;2.33;;;;;;;20.24;68.69;99932.37;4465782;32;33569;-79
2023/09/17 06:20:29;;;;;;;3.67;2.00;;;;;;;19.96;70.17;99935.53;4464955;32;33619;-80
2023/09/17 06:22:59;;;;;;;4.32;2.08;;;;;;;20.10;70.02;99932.19;4461520;32;34046;-80
2023/09/17 06:25:30;;;;;;;4.65;2.25;;;;;;;20.04;70.84;99933.34;4460480;32;32732;-79
2023/09/17 06:27:59;;;;;;;5.47;1.92;;;;;;;20.21;70.26;99935.16;4460006;32;33791;-79
2023/09/17 06:30:28;;;;;;;5.05;2.50;;;;;;;20.52;69.36;99937.12;4466138;32;33714;-79
2023/09/17 06:32:57;;;;;;;3.72;1.77;;;;;;;20.51;69.68;99940.69;4467896;32;33854;-79
2023/09/17 06:35:25;;;;;;;4.93;1.87;;;;;;;20.53;69.59;99943.25;4460861;32;33274;-80
2023/09/17 06:37:54;;;;;;;2.83;1.60;;;;;;;20.70;68.90;99934.53;4463228;32;33562;-79
2023/09/17 06:40:23;;;;;;;4.53;2.40;;;;;;;20.61;69.41;99947.25;4460530;32;34864;-79
2023/09/17 06:42:53;;;;;;;3.62;2.03;;;;;;;20.38;69.72;99948.34;4464565;32;34065;-80
2023/09/17 06:45:23;;;;;;;;;;;;;;;20.28;69.94;99946.25;4463439;32;33528;-79
2023/09/17 06:47:51;;;;;;;6.40;1.85;;;;;;;20.56;69.54;99940.47;4460443;32;33743;-80
2023/09/17 06:50:20;;;;;;;3.67;1.70;;;;;;;20.91;68.02;99943.97;4463027;32;33504;-79
2023/09/17 06:52:49;;;;;;;2.65;1.55;;;;;;;21.03;67.20;99940.69;4466048;32;34912;-79
2023/09/17 06:55:21;;;;;;;5.87;2.05;;;;;;;21.11;67.23;99942.91;4459591;32;34400;-79
2023/09/17 06:57:50;;;;;;;3.58;1.92;;;;;;;20.98;67.73;99947.16;4459278;32;33331;-80
2023/09/17 07:00:20;;;;;;;4.95;2.25;;;;;;;20.99;67.90;99946.19;4465880;32;34455;-80
2023/09/17 07:02:49;;;;;;;4.43;2.30;;;;;;;20.92;67.88;99950.09;4462401;32;34298;-79
2023/09/17 07:05:18;;;;;;;4.50;2.05;;;;;;;21.08;67.49;99956.28;4469771;32;33269;-79
2023/09/17 07:07:47;;;;;;;4.20;1.90;;;;;;;21.00;67.72;99955.84;4463996;32;34309;-79
2023/09/17 07:10:15;;;;;;;4.18;2.10;;;;;;;21.08;67.65;99949.22;4462174;32;33744;-79
2023/09/17 07:12:44;;;;;;;3.15;1.83;;;;;;;21.27;67.47;99949.09;4464504;32;33828;-80
2023/09/17 07:15:13;;;;;;;4.00;2.20;;;;;;;21.47;66.73;99953.31;4473097;32;33603;-80
2023/09/17 07:17:43;;;;;;;5.45;2.25;;;;;;;21.53;66.09;99957.44;4464737;32;33543;-79
2023/09/17 07:20:13;;;;;;;4.95;2.53;;;;;;;21.75;65.02;99957.13;4468726;32;33325;-80
2023/09/17 07:22:42;;;;;;;4.62;2.50;;;;;;;21.91;65.00;99951.81;4467921;32;34086;-80
2023/09/17 07:25:11;;;;;;;3.47;2.17;;;;;;;21.68;65.17;99953.09;4467894;32;32282;-79
2023/09/17 07:27:40;;;;;;;4.53;2.50;;;;;;;21.83;65.34;99951.41;4464624;32;34645;-80
2023/09/17 07:30:09;;;;;;;4.62;2.33;;;;;;;21.78;66.29;99956.09;4465494;32;33932;-79
2023/09/17 07:32:38;;;;;;;4.65;2.47;;;;;;;21.92;65.34;99962.31;4469459;32;34222;-80
2023/09/17 07:35:09;;;;;;;6.07;2.85;;;;;;;22.15;64.37;99960.16;4470740;32;33411;-80
2023/09/17 07:37:37;;;;;;;5.82;3.47;;;;;;;22.02;64.56;99957.34;4465455;32;34421;-81
2023/09/17 07:40:18;;;;;;;4.07;2.10;;;;;;;22.35;63.96;99956.41;4457935;32;33542;-79
2023/09/17 07:42:47;;;;;;;5.20;2.40;;;;;;;22.54;63.36;99957.03;4452457;32;206637;-79
2023/09/17 07:45:16;;;;;;;4.43;1.98;;;;;;;22.51;63.54;99957.19;4461613;32;33707;-80
2023/09/17 07:47:45;;;;;;;5.00;2.65;;;;;;;22.48;63.58;99964.47;4464836;32;33742;-80
2023/09/17 07:50:16;;;;;;;6.53;3.28;;;;;;;22.47;63.10;99962.75;4466464;32;34560;-80
2023/09/17 07:52:46;;;;;;;5.32;2.30;;;;;;;22.66;63.18;99955.44;4460338;32;34049;-80
2023/09/17 07:55:16;;;;;;;9.50;3.00;;;;;;;22.69;62.83;99963.22;4464052;32;33536;-79
2023/09/17 07:57:46;;;;;;;5.43;2.90;;;;;;;22.92;61.43;99963.63;4457605;32;36045;-80
2023/09/17 08:00:16;;;;;;;6.03;2.92;;;;;;;22.74;62.38;99969.09;4463073;32;35409;-80
2023/09/17 08:02:45;;;;;;;4.93;2.70;;;;;;;22.85;61.63;99968.44;4460226;32;36332;-80
2023/09/17 08:05:16;;;;;;;5.20;2.87;;;;;;;22.57;62.97;99959.50;4468079;32;33348;-79
2023/09/17 08:07:45;;;;;;;4.55;2.30;;;;;;;22.85;61.80;99964.94;4464424;32;34656;-80
2023/09/17 08:10:14;;;;;;;18.50;3.10;;;;;;;22.89;62.17;99963.81;4467576;32;33461;-79
2023/09/17 08:12:43;;;;;;;5.53;3.25;;;;;;;23.12;61.71;99970.41;4468870;32;34310;-79
2023/09/17 08:15:13;;;;;;;4.82;2.83;;;;;;;23.14;61.73;99974.66;4458533;32;33068;-80
2023/09/17 08:17:43;;;;;;;6.03;2.83;;;;;;;23.19;61.48;99977.00;4462809;32;34188;-80
2023/09/17 08:20:12;;;;;;;5.72;2.55;;;;;;;23.31;60.93;99976.25;4458975;32;33199;-80
2023/09/17 08:22:43;;;;;;;5.20;3.05;;;;;;;23.47;59.56;99976.19;4472034;32;33823;-80
2023/09/17 08:25:33;;;;;;;5.87;3.30;;;;;;;23.36;60.81;99975.97;4459564;32;32977;-81
2023/09/17 08:28:22;;;;;;;5.45;2.90;;;;;;;23.67;60.11;99977.56;4466044;32;34370;-80
2023/09/17 08:31:11;;;;;;;5.78;2.75;;;;;;;23.72;60.14;99974.62;4462279;31;33580;-80
2023/09/17 08:34:02;;;;;;;4.82;2.53;;;;;;;23.23;61.90;99973.25;4468512;32;33598;-80
2023/09/17 08:36:38;;;;;;;5.60;2.80;;;;;;;23.68;60.05;99974.00;4457766;32;34421;-80
2023/09/17 08:39:08;;;;;;;3.85;2.03;;;;;;;23.85;59.47;99972.97;4471660;32;34389;-80
2023/09/17 08:41:38;;;;;;;5.32;2.65;;;;;;;23.86;59.34;99974.66;4466099;32;34017;-80
2023/09/17 08:44:07;;;;;;;5.87;2.60;;;;;;;24.00;58.57;99964.00;4465722;32;34496;-81
2023/09/17 08:46:36;;;;;;;5.93;2.78;;;;;;;23.94;58.62;99963.56;4463555;32;34003;-80
2023/09/17 08:49:05;;;;;;;5.07;2.25;;;;;;;23.93;59.06;99964.50;4466061;32;34426;-80
2023/09/17 08:51:36;;;;;;;4.35;2.55;;;;;;;24.08;58.43;99970.63;4463609;32;33934;-80
2023/09/17 08:54:09;;;;;;;4.20;2.37;;;;;;;24.16;58.06;99968.31;4460443;32;35012;-81
2023/09/17 08:56:42;;;;;;;4.97;2.42;;;;;;;24.24;57.87;99964.22;4460825;32;33699;-81
2023/09/17 08:59:17;;;;;;;5.05;2.58;;;;;;;24.44;57.42;99968.19;4464395;32;33643;-80
2023/09/17 09:01:51;;;;;;;6.32;3.25;;;;;;;24.31;57.73;99964.66;4464842;31;34650;-80
2023/09/17 09:04:22;;;;;;;5.95;2.92;;;;;;;24.19;57.98;99965.47;4463542;32;33799;-80
2023/09/17 09:06:51;;;;;;;4.75;2.50;;;;;;;24.38;57.16;99959.78;4464724;32;32699;-80
2023/09/17 09:09:23;;;;;;;5.03;2.58;;;;;;;24.26;57.81;99962.31;4464640;32;33282;-80
2023/09/17 09:11:52;;;;;;;4.72;2.75;;;;;;;24.38;57.18;99970.41;4463074;32;34024;-80
2023/09/17 09:14:21;;;;;;;4.53;2.55;;;;;;;24.57;56.90;99965.59;4462860;32;34736;-80
2023/09/17 09:16:50;;;;;;;5.87;3.35;;;;;;;24.89;56.35;99963.44;4462365;32;33649;-80
2023/09/17 09:19:19;;;;;;;5.80;3.30;;;;;;;24.84;55.43;99957.59;4464638;32;34778;-81
2023/09/17 09:21:48;;;;;;;5.43;2.80;;;;;;;25.16;55.27;99964.31;4462596;32;34801;-81
2023/09/17 09:24:17;;;;;;;6.55;3.20;;;;;;;25.38;53.98;99961.84;4468404;32;33804;-81
2023/09/17 09:26:48;;;;;;;5.97;2.95;;;;;;;25.08;55.50;99956.84;4473460;32;34264;-80
2023/09/17 09:29:17;;;;;;;7.37;3.10;;;;;;;25.08;56.04;99949.75;4464727;32;33584;-80
2023/09/17 09:31:46;;;;;;;7.72;3.37;;;;;;;25.55;54.18;99950.88;4460438;32;33726;-81
2023/09/17 09:34:16;;;;;;;6.57;2.70;;;;;;;25.62;53.85;99950.47;4461289;32;33440;-81
2023/09/17 09:36:45;;;;;;;5.82;2.95;;;;;;;25.42;54.12;99950.06;4465848;32;33985;-80
2023/09/17 09:39:15;;;;;;;5.47;2.72;;;;;;;25.42;54.64;99949.19;4468542;32;33468;-80
2023/09/17 09:41:44;;;;;;;6.25;3.15;;;;;;;25.82;53.42;99952.50;4472927;32;33160;-80
2023/09/17 09:44:14;;;;;;;5.80;2.83;;;;;;;25.99;53.11;99947.81;4468214;32;33676;-79
2023/09/17 09:46:44;;;;;;;5.62;2.97;;;;;;;25.84;53.02;99961.22;4471555;31;33386;-80
2023/09/17 09:49:13;;;;;;;6.90;3.40;;;;;;;25.90;52.86;99950.19;4471036;32;33985;-81
2023/09/17 09:51:44;;;;;;;6.53;3.30;;;;;;;25.70;53.48;99950.75;4464360;32;33661;-80
2023/09/17 09:54:13;;;;;;;5.18;2.95;;;;;;;26.01;52.58;99949.41;4459141;32;34211;-80
2023/09/17 09:56:42;;;;;;;5.93;2.87;;;;;;;25.88;53.07;99951.28;4466112;32;32877;-80
2023/09/17 09:59:13;;;;;;;5.65;3.22;;;;;;;26.13;52.51;99952.97;4472662;32;33746;-80
2023/09/17 10:01:43;;;;;;;5.28;3.12;;;;;;;25.82;52.72;99951.66;4468821;32;33113;-80
2023/09/17 10:04:12;;;;;;;6.50;3.17;;;;;;;26.13;52.51;99942.34;4464908;32;33769;-80
2023/09/17 10:06:41;;;;;;;4.32;2.55;;;;;;;26.29;52.90;99948.22;4472164;32;34139;-80
2023/09/17 10:09:11;;;;;;;5.62;3.35;;;;;;;26.27;52.43;99950.13;4473108;32;35157;-80
2023/09/17 10:11:40;;;;;;;4.68;2.50;;;;;;;26.22;52.15;99943.47;4470397;32;33991;-81
2023/09/17 10:14:09;;;;;;;4.40;2.45;;;;;;;26.26;52.29;99939.59;4458946;32;34713;-80
2023/09/17 10:16:41;;;;;;;5.53;2.60;;;;;;;26.64;50.34;99938.56;4465555;32;32070;-80
2023/09/17 10:19:11;;;;;;;5.20;3.33;;;;;;;26.21;50.59;99939.09;4459615;32;34050;-80
2023/09/17 10:21:40;;;;;;;4.97;2.62;;;;;;;26.44;50.91;99937.38;4472327;32;33480;-80
2023/09/17 10:24:28;;;;;;;5.75;3.05;;;;;;;26.87;49.88;99937.66;4466514;32;34992;-80
2023/09/17 10:26:59;;;;;;;3.95;2.37;;;;;;;26.81;50.55;99930.97;4464898;32;33965;-80
2023/09/17 10:29:29;;;;;;;6.07;3.17;;;;;;;26.88;50.02;99933.16;4468302;32;33492;-80
2023/09/17 10:32:01;;;;;;;6.43;3.00;;;;;;;26.89;50.13;99929.53;4471556;32;33999;-81
2023/09/17 10:34:32;;;;;;;5.62;2.60;;;;;;;27.08;49.62;99927.13;4477228;32;32622;-81
2023/09/17 10:37:03;;;;;;;4.30;2.67;;;;;;;27.39;49.61;99930.06;4467963;32;34051;-80
2023/09/17 10:39:32;;;;;;;;;;;;;;;27.42;49.63;99928.03;4457227;32;33423;-80
2023/09/17 10:42:02;;;;;;;5.60;3.12;;;;;;;27.41;50.50;99930.81;4457552;32;33567;-80
2023/09/17 10:44:36;;;;;;;3.28;1.85;;;;;;;27.30;49.17;99920.97;4468613;32;34161;-80
2023/09/17 10:47:10;;;;;;;4.60;2.90;;;;;;;27.37;49.07;99924.84;4466512;32;33462;-81
2023/09/17 10:49:43;;;;;;;8.18;3.70;;;;;;;27.42;48.75;99922.69;4467138;32;34609;-80
2023/09/17 10:52:13;;;;;;;5.72;3.05;;;;;;;27.59;48.97;99925.81;4464514;32;34587;-80
2023/09/17 10:54:42;;;;;;;5.65;3.03;;;;;;;27.64;47.97;99924.47;4467902;32;33680;-80
2023/09/17 10:57:31;;;;;;;5.47;2.80;;;;;;;27.40;48.50;99918.44;4470063;32;34419;-80
2023/09/17 11:00:03;;;;;;;5.07;3.17;;;;;;;27.41;47.79;99913.00;4473699;32;34482;-80
2023/09/17 11:02:36;;;;;;;6.85;2.92;;;;;;;27.65;47.79;99910.16;4477249;32;33761;-81
2023/09/17 11:05:07;;;;;;;5.10;2.60;;;;;;;27.80;48.14;99900.06;4477116;32;34059;-80
2023/09/17 11:07:37;;;;;;;5.82;3.00;;;;;;;27.61;47.37;99902.53;4476356;32;33693;-81
2023/09/17 11:10:07;;;;;;;4.82;2.83;;;;;;;27.83;48.18;99899.00;4482373;32;33234;-80
2023/09/17 11:12:53;;;;;;;5.97;2.97;;;;;;;27.86;47.03;99898.78;4482605;32;34836;-80
2023/09/17 11:15:22;;;;;;;5.00;2.90;;;;;;;28.11;46.65;99904.75;4479728;32;33925;-81
2023/09/17 11:17:58;;;;;;;4.90;2.90;;;;;;;28.01;46.46;99894.84;4476803;32;33370;-81
2023/09/17 11:20:28;;;;;;;6.60;3.45;;;;;;;28.05;47.29;99901.63;4477197;32;33506;-80
2023/09/17 11:22:57;;;;;;;4.55;2.55;;;;;;;28.31;46.36;99901.25;4482276;32;34466;-80
2023/09/17 11:25:35;;;;;;;5.82;2.85;;;;;;;28.53;46.25;99889.63;4477047;32;33708;-79
2023/09/17 11:28:10;;;;;;;4.22;2.40;;;;;;;28.38;45.72;99897.09;4476906;32;33423;-80
2023/09/17 11:30:56;;;;;;;4.55;2.42;;;;;;;28.40;46.04;99900.47;4476798;32;34624;-80
2023/09/17 11:33:27;;;;;;;6.18;2.72;;;;;;;28.61;45.09;99897.84;4476844;32;33734;-79
2023/09/17 11:35:58;;;;;;;5.05;2.87;;;;;;;28.60;45.28;99892.63;4482277;32;34726;-81
2023/09/17 11:38:30;;;;;;;5.22;3.03;;;;;;;28.63;44.47;99890.56;4476796;32;33920;-81
2023/09/17 11:41:08;;;;;;;5.80;3.05;;;;;;;28.74;45.10;99894.97;4476610;32;34284;-80
2023/09/17 11:43:41;;;;;;;5.80;3.15;;;;;;;28.74;45.96;99894.13;4477129;32;34095;-81
2023/09/17 11:46:11;;;;;;;5.65;3.10;;;;;;;29.02;45.44;99889.88;4476227;32;34553;-80
2023/09/17 11:48:43;;;;;;;6.65;3.08;;;;;;;28.85;45.16;99894.91;4480975;32;33386;-80